createdAt,value
2024-04-10T00:01:42.480Z,2.13
2024-04-10T00:04:09.153Z,2.60
2024-04-10T00:06:35.757Z,2.40
2024-04-10T00:09:02.288Z,2.30
2024-04-10T00:11:28.952Z,2.25
2024-04-10T00:13:55.572Z,2.08
2024-04-10T00:16:24.706Z,2.70
2024-04-10T00:18:51.470Z,2.63
2024-04-10T00:21:18.265Z,2.90
2024-04-10T00:23:44.767Z,2.00
2024-04-10T00:26:11.309Z,2.67
2024-04-10T00:28:38.005Z,2.95
2024-04-10T00:31:05.882Z,2.72
2024-04-10T00:33:35.273Z,2.67
2024-04-10T00:36:03.129Z,3.28
2024-04-10T00:38:30.783Z,2.95
2024-04-10T00:40:58.432Z,3.20
2024-04-10T00:43:25.612Z,2.55
2024-04-10T00:45:56.377Z,2.92
2024-04-10T00:48:23.027Z,2.97
2024-04-10T00:50:52.954Z,2.55
2024-04-10T00:53:20.169Z,3.00
2024-04-10T00:55:47.638Z,2.72
2024-04-10T00:58:15.057Z,3.25
2024-04-10T01:00:41.954Z,3.25
2024-04-10T01:03:08.540Z,2.63
2024-04-10T01:05:35.402Z,2.78
2024-04-10T01:08:05.497Z,3.60
2024-04-10T01:10:32.555Z,3.00
2024-04-10T01:12:59.919Z,2.80
2024-04-10T01:15:28.437Z,3.00
2024-04-10T01:17:55.040Z,3.25
2024-04-10T01:20:21.773Z,3.88
2024-04-10T01:22:50.970Z,4.03
2024-04-10T01:25:20.105Z,3.97
2024-04-10T01:27:46.645Z,3.70
2024-04-10T01:30:13.184Z,4.93
2024-04-10T01:32:39.862Z,3.90
2024-04-10T01:35:06.925Z,4.07
2024-04-10T01:37:33.643Z,3.80
2024-04-10T01:40:00.217Z,3.65
2024-04-10T01:42:29.370Z,3.10
2024-04-10T01:44:55.990Z,4.45
2024-04-10T01:47:22.704Z,4.78
2024-04-10T01:49:50.839Z,4.60
2024-04-10T01:52:17.549Z,3.85
2024-04-10T01:54:45.675Z,3.88
2024-04-10T01:57:12.259Z,3.72
2024-04-10T01:59:41.384Z,4.30
2024-04-10T02:02:07.986Z,3.85
2024-04-10T02:04:34.745Z,4.38
2024-04-10T02:07:01.697Z,3.55
2024-04-10T02:09:29.245Z,3.97
2024-04-10T02:11:55.980Z,4.05
2024-04-10T02:14:22.877Z,3.88
2024-04-10T02:16:52.319Z,3.90
2024-04-10T02:19:19.013Z,3.67
2024-04-10T02:21:45.659Z,3.92
2024-04-10T02:24:12.713Z,3.95
2024-04-10T02:26:39.331Z,3.83
2024-04-10T02:29:06.076Z,3.80
2024-04-10T02:31:32.637Z,3.92
2024-04-10T02:34:01.927Z,3.60
2024-04-10T02:36:28.723Z,4.20
2024-04-10T02:38:55.300Z,3.70
2024-04-10T02:41:21.888Z,3.63
2024-04-10T02:43:48.611Z,3.60
2024-04-10T02:46:15.346Z,3.70
2024-04-10T02:48:41.960Z,3.80
2024-04-10T02:51:11.188Z,3.72
2024-04-10T02:53:37.795Z,3.83
2024-04-10T02:56:04.869Z,3.55
2024-04-10T02:58:31.594Z,4.35
2024-04-10T03:00:58.524Z,3.85
2024-04-10T03:03:26.407Z,3.85
2024-04-10T03:06:00.810Z,4.78
2024-04-10T03:08:30.160Z,3.95
2024-04-10T03:10:56.770Z,3.63
2024-04-10T03:13:23.656Z,4.22
2024-04-10T03:15:50.367Z,3.72
2024-04-10T03:18:17.431Z,3.70
2024-04-10T03:20:44.306Z,4.65
2024-04-10T03:23:11.053Z,3.63
2024-04-10T03:25:40.337Z,3.78
2024-04-10T03:28:07.123Z,3.53
2024-04-10T03:30:33.812Z,4.53
2024-04-10T03:33:00.517Z,4.00
2024-04-10T03:35:29.251Z,3.90
2024-04-10T03:37:55.894Z,4.03
2024-04-10T03:40:23.507Z,5.05
2024-04-10T03:42:52.612Z,4.15
2024-04-10T03:45:20.248Z,4.30
2024-04-10T03:47:47.130Z,4.88
2024-04-10T03:50:15.565Z,4.13
2024-04-10T03:52:43.428Z,4.22
2024-04-10T03:55:10.002Z,4.20
2024-04-10T03:57:36.513Z,4.70
2024-04-10T04:00:07.235Z,3.38
2024-04-10T04:02:33.785Z,4.10
2024-04-10T04:05:00.481Z,4.85
2024-04-10T04:07:27.065Z,4.13
2024-04-10T04:09:53.585Z,4.35
2024-04-10T04:12:22.354Z,3.65
2024-04-10T04:14:49.925Z,3.78
2024-04-10T04:17:19.258Z,4.50
2024-04-10T04:19:45.890Z,3.92
2024-04-10T04:22:12.464Z,4.00
2024-04-10T04:24:39.036Z,3.72
2024-04-10T04:27:06.002Z,3.55
2024-04-10T04:29:33.201Z,3.97
2024-04-10T04:31:59.856Z,4.38
2024-04-10T04:34:29.031Z,4.15
2024-04-10T04:36:55.602Z,3.97
2024-04-10T04:39:22.173Z,3.38
2024-04-10T04:41:48.771Z,4.85
2024-04-10T04:44:15.435Z,4.20
2024-04-10T04:46:42.135Z,4.93
2024-04-10T04:49:08.689Z,4.07
2024-04-10T04:51:37.849Z,3.72
2024-04-10T04:54:04.421Z,4.55
2024-04-10T04:56:31.034Z,3.58
2024-04-10T04:58:57.615Z,3.65
2024-04-10T05:01:24.276Z,3.83
2024-04-10T05:03:51.000Z,4.95
2024-04-10T05:06:18.872Z,3.67
2024-04-10T05:08:49.073Z,3.20
2024-04-10T05:11:15.651Z,3.60
2024-04-10T05:13:42.387Z,5.05
2024-04-10T05:16:09.416Z,3.78
2024-04-10T05:18:36.061Z,3.78
2024-04-10T05:21:02.661Z,4.57
2024-04-10T05:23:29.354Z,4.63
2024-04-10T05:26:04.083Z,4.82
2024-04-10T05:28:30.958Z,4.32
2024-04-10T05:31:01.857Z,4.25
2024-04-10T05:33:28.509Z,3.97
2024-04-10T05:35:59.027Z,4.82
2024-04-10T05:38:25.947Z,4.07
2024-04-10T05:40:52.543Z,4.60
2024-04-10T05:43:21.646Z,4.88
2024-04-10T05:45:52.740Z,5.03
2024-04-10T05:48:19.460Z,5.43
2024-04-10T05:50:46.229Z,6.43
2024-04-10T05:53:12.983Z,5.88
2024-04-10T05:55:39.593Z,5.18
2024-04-10T05:58:06.167Z,5.78
2024-04-10T06:00:35.880Z,4.78
2024-04-10T06:03:02.644Z,4.75
2024-04-10T06:05:29.270Z,5.00
2024-04-10T06:07:55.926Z,5.32
2024-04-10T06:10:22.461Z,4.90
2024-04-10T06:12:49.755Z,4.90
2024-04-10T06:15:16.680Z,3.85
2024-04-10T06:17:45.944Z,4.55
2024-04-10T06:21:30.136Z,3.92
2024-04-10T06:23:56.690Z,3.50
2024-04-10T06:26:23.937Z,3.40
2024-04-10T06:28:50.586Z,3.38
2024-04-10T06:31:17.170Z,4.15
2024-04-10T06:33:43.831Z,3.78
2024-04-10T06:36:10.461Z,3.28
2024-04-10T06:38:39.593Z,3.33
2024-04-10T06:41:06.430Z,3.03
2024-04-10T06:43:33.153Z,2.55
2024-04-10T06:46:00.874Z,3.55
2024-04-10T06:48:28.066Z,3.15
2024-04-10T06:50:57.283Z,2.85
2024-04-10T06:53:24.044Z,2.60
2024-04-10T06:55:57.611Z,3.25
2024-04-10T06:58:25.517Z,3.30
2024-04-10T07:00:56.385Z,3.88
2024-04-10T07:03:23.135Z,3.45
2024-04-10T07:05:49.760Z,2.60
2024-04-10T07:08:16.614Z,3.13
2024-04-10T07:10:43.257Z,2.65
2024-04-10T07:13:14.969Z,3.17
2024-04-10T07:15:41.686Z,3.28
2024-04-10T07:18:08.565Z,3.25
2024-04-10T07:20:35.393Z,2.80
2024-04-10T07:23:06.047Z,2.60
2024-04-10T07:25:32.757Z,3.20
2024-04-10T07:27:59.331Z,3.20
2024-04-10T07:30:30.747Z,3.33
2024-04-10T07:32:58.061Z,2.92
2024-04-10T07:35:29.345Z,3.80
2024-04-10T07:37:55.958Z,2.45
2024-04-10T07:40:22.581Z,3.40
2024-04-10T07:42:50.452Z,3.45
2024-04-10T07:45:17.025Z,3.45
2024-04-10T07:47:50.460Z,3.08
2024-04-10T07:50:17.580Z,3.17
2024-04-10T07:52:44.145Z,3.38
2024-04-10T07:55:15.953Z,3.60
2024-04-10T07:57:46.492Z,3.03
2024-04-10T08:00:14.592Z,3.22
2024-04-10T08:02:41.249Z,3.47
2024-04-10T08:05:13.596Z,3.35
2024-04-10T08:07:40.250Z,2.78
2024-04-10T08:10:07.528Z,2.78
2024-04-10T08:12:34.047Z,2.80
2024-04-10T08:15:03.297Z,3.13
2024-04-10T08:17:33.114Z,2.33
2024-04-10T08:19:59.750Z,3.33
2024-04-10T08:22:31.947Z,2.40
2024-04-10T08:24:58.733Z,2.72
2024-04-10T08:27:25.261Z,2.45
2024-04-10T08:29:51.883Z,2.90
2024-04-10T08:32:18.493Z,2.55
2024-04-10T08:34:45.231Z,2.80
2024-04-10T08:37:11.871Z,2.75
2024-04-10T08:39:40.998Z,2.83
2024-04-10T08:42:08.095Z,2.38
2024-04-10T08:44:37.570Z,2.70
2024-04-10T08:47:05.774Z,2.47
2024-04-10T08:49:33.104Z,3.00
2024-04-10T08:52:00.338Z,2.60
2024-04-10T08:54:29.581Z,2.20
2024-04-10T08:56:59.026Z,2.50
2024-04-10T08:59:25.711Z,2.75
2024-04-10T09:01:52.334Z,2.33
2024-04-10T09:04:19.416Z,2.42
2024-04-10T09:06:46.329Z,2.67
2024-04-10T09:09:23.168Z,2.08
2024-04-10T09:11:52.008Z,2.63
2024-04-10T09:14:21.410Z,1.92
2024-04-10T09:16:48.264Z,2.42
2024-04-10T09:19:16.195Z,2.67
2024-04-10T09:21:44.332Z,2.25
2024-04-10T09:24:11.726Z,2.30
2024-04-10T09:26:44.272Z,2.53
2024-04-10T09:29:16.878Z,2.22
2024-04-10T09:31:48.628Z,2.85
2024-04-10T09:34:19.270Z,1.98
2024-04-10T09:36:47.115Z,1.83
2024-04-10T09:39:14.269Z,1.83
2024-04-10T09:41:44.444Z,1.90
2024-04-10T09:44:12.235Z,2.40
2024-04-10T09:46:39.399Z,2.20
2024-04-10T09:49:11.915Z,2.10
2024-04-10T09:51:39.329Z,1.80
2024-04-10T09:54:07.741Z,1.98
2024-04-10T09:56:35.729Z,2.25
2024-04-10T09:59:02.992Z,2.40
2024-04-10T10:01:30.006Z,2.30
2024-04-10T10:03:57.122Z,2.08
2024-04-10T10:06:31.551Z,2.45
2024-04-10T10:09:00.222Z,2.15
2024-04-10T10:11:27.179Z,2.35
2024-04-10T10:13:57.765Z,1.85
2024-04-10T10:16:26.405Z,2.55
2024-04-10T10:18:54.776Z,2.72
2024-04-10T10:21:22.828Z,3.15
2024-04-10T10:23:59.121Z,3.22
2024-04-10T10:26:26.123Z,2.70
2024-04-10T10:29:03.491Z,2.40
2024-04-10T10:31:32.089Z,2.80
2024-04-10T10:34:03.055Z,2.30
2024-04-10T10:36:32.350Z,2.80
2024-04-10T10:39:06.328Z,2.35
2024-04-10T10:41:32.915Z,2.30
2024-04-10T10:43:59.751Z,2.10
2024-04-10T10:46:26.381Z,2.22
2024-04-10T10:48:53.004Z,2.25
2024-04-10T10:51:19.629Z,1.70
2024-04-10T10:53:47.050Z,1.60
2024-04-10T10:56:23.663Z,2.05
2024-04-10T10:58:50.248Z,1.88
2024-04-10T11:01:19.132Z,1.70
2024-04-10T11:03:46.028Z,1.83
2024-04-10T11:06:13.612Z,2.17
2024-04-10T11:08:40.661Z,1.92
2024-04-10T11:11:09.031Z,2.35
2024-04-10T11:13:47.264Z,1.52
2024-04-10T11:16:24.830Z,1.40
2024-04-10T11:18:51.457Z,2.13
2024-04-10T11:21:18.038Z,1.70
2024-04-10T11:23:44.659Z,2.05
2024-04-10T11:26:11.235Z,1.70
2024-04-10T11:28:40.407Z,1.35
2024-04-10T11:31:07.989Z,2.35
2024-04-10T11:33:34.791Z,1.65
2024-04-10T11:36:01.578Z,1.40
2024-04-10T11:38:28.229Z,1.83
2024-04-10T11:40:54.930Z,2.65
2024-04-10T11:43:21.453Z,2.38
2024-04-10T11:45:50.573Z,2.00
2024-04-10T11:48:17.261Z,1.70
2024-04-10T11:50:43.888Z,2.42
2024-04-10T11:53:10.559Z,1.70
2024-04-10T11:55:37.088Z,1.60
2024-04-10T11:58:05.215Z,2.05
2024-04-10T12:00:32.440Z,1.90
2024-04-10T12:03:01.778Z,1.73
2024-04-10T12:05:28.614Z,1.55
2024-04-10T12:07:55.335Z,1.67
2024-04-10T12:10:22.248Z,2.90
2024-04-10T12:12:49.223Z,1.77
2024-04-10T12:15:15.897Z,2.45
2024-04-10T12:17:42.579Z,2.20
2024-04-10T12:20:12.004Z,1.80
2024-04-10T12:22:38.634Z,2.70
2024-04-10T12:25:05.593Z,2.28
2024-04-10T12:27:32.353Z,1.92
2024-04-10T12:29:59.236Z,2.03
2024-04-10T12:32:26.352Z,2.40
2024-04-10T12:34:53.200Z,1.92
2024-04-10T12:37:22.424Z,1.70
2024-04-10T12:39:48.961Z,1.42
2024-04-10T12:42:15.656Z,1.50
2024-04-10T12:44:42.296Z,1.30
2024-04-10T12:47:09.217Z,1.83
2024-04-10T12:49:35.832Z,2.38
2024-04-10T12:52:02.424Z,1.70
2024-04-10T12:54:32.562Z,1.50
2024-04-10T12:56:59.312Z,2.03
2024-04-10T12:59:25.997Z,1.48
2024-04-10T13:01:52.624Z,1.80
2024-04-10T13:04:19.399Z,2.13
2024-04-10T13:06:46.207Z,1.92
2024-04-10T13:09:12.737Z,1.45
2024-04-10T13:11:41.961Z,1.70
2024-04-10T13:14:08.571Z,2.22
2024-04-10T13:16:35.116Z,1.55
2024-04-10T13:19:01.751Z,1.80
2024-04-10T13:21:28.338Z,2.00
2024-04-10T13:23:55.020Z,2.42
2024-04-10T13:26:21.683Z,2.08
2024-04-10T13:28:51.041Z,1.80
2024-04-10T13:31:18.751Z,1.95
2024-04-10T13:33:46.878Z,2.25
2024-04-10T13:36:15.136Z,2.10
2024-04-10T13:38:43.596Z,2.15
2024-04-10T13:41:10.958Z,2.92
2024-04-10T13:43:38.682Z,2.35
2024-04-10T13:46:09.141Z,2.50
2024-04-10T13:48:36.155Z,2.30
2024-04-10T13:51:03.271Z,2.05
2024-04-10T13:53:30.019Z,3.25
2024-04-10T13:56:04.372Z,2.40
2024-04-10T13:58:30.915Z,2.72
2024-04-10T14:00:57.559Z,2.90
2024-04-10T14:03:26.928Z,3.40
2024-04-10T14:05:59.855Z,2.55
2024-04-10T14:08:26.476Z,3.20
2024-04-10T14:10:53.082Z,3.20
2024-04-10T14:13:19.618Z,2.97
2024-04-10T14:15:52.730Z,3.17
2024-04-10T14:18:19.443Z,2.72
2024-04-10T14:20:49.075Z,3.30
2024-04-10T14:23:15.700Z,3.00
2024-04-10T14:25:42.243Z,3.00
2024-04-10T14:28:09.415Z,2.13
2024-04-10T14:30:35.959Z,2.85
2024-04-10T14:33:02.718Z,2.53
2024-04-10T14:35:29.536Z,2.65
2024-04-10T14:37:58.672Z,3.00
2024-04-10T14:40:27.173Z,2.53
2024-04-10T14:42:57.255Z,2.53
2024-04-10T14:45:29.691Z,2.85
2024-04-10T14:47:56.369Z,2.88
2024-04-10T14:50:23.127Z,3.47
2024-04-10T14:52:49.679Z,3.30
2024-04-10T14:55:18.822Z,3.40
2024-04-10T14:57:45.344Z,3.42
2024-04-10T15:00:12.305Z,3.50
2024-04-10T15:02:38.917Z,3.83
2024-04-10T15:05:05.969Z,2.90
2024-04-10T15:07:32.566Z,3.17
2024-04-10T15:09:59.962Z,3.28
2024-04-10T15:12:29.117Z,3.63
2024-04-10T15:14:57.443Z,3.42
2024-04-10T15:17:24.017Z,4.10
2024-04-10T15:19:50.576Z,5.32
2024-04-10T15:22:17.137Z,3.75
2024-04-10T15:24:43.668Z,4.95
2024-04-10T15:27:10.258Z,4.18
2024-04-10T15:29:39.453Z,5.15
2024-04-10T15:32:06.129Z,4.72
2024-04-10T15:34:32.844Z,5.57
2024-04-10T15:37:01.478Z,4.65
2024-04-10T15:39:28.312Z,5.50
2024-04-10T15:41:54.874Z,4.63
2024-04-10T15:44:24.666Z,4.82
2024-04-10T15:46:54.040Z,4.72
2024-04-10T15:49:21.004Z,4.05
2024-04-10T15:51:47.605Z,4.22
2024-04-10T15:54:14.245Z,4.25
2024-04-10T15:56:40.887Z,4.43
2024-04-10T15:59:07.606Z,4.45
2024-04-10T16:01:34.132Z,4.57
2024-04-10T16:04:03.525Z,3.30
2024-04-10T16:06:30.228Z,3.63
2024-04-10T16:08:59.847Z,3.60
2024-04-10T16:11:28.134Z,3.08
2024-04-10T16:13:54.756Z,4.43
2024-04-10T16:16:21.709Z,3.20
2024-04-10T16:18:49.611Z,4.28
2024-04-10T16:21:19.027Z,3.78
2024-04-10T16:23:46.851Z,3.92
2024-04-10T16:26:15.205Z,3.22
2024-04-10T16:28:42.289Z,3.83
2024-04-10T16:31:08.864Z,3.55
2024-04-10T16:33:35.966Z,3.15
2024-04-10T16:36:07.057Z,4.25
2024-04-10T16:38:36.671Z,3.90
2024-04-10T16:41:04.136Z,3.70
2024-04-10T16:43:33.938Z,4.03
2024-04-10T16:46:02.671Z,3.40
2024-04-10T16:48:29.857Z,3.15
2024-04-10T16:50:57.591Z,3.60
2024-04-10T16:53:24.442Z,3.25
2024-04-10T16:55:53.604Z,3.45
2024-04-10T16:58:20.166Z,3.53
2024-04-10T17:00:47.275Z,3.30
2024-04-10T17:03:14.243Z,4.18
2024-04-10T17:05:41.231Z,5.00
2024-04-10T17:08:08.836Z,4.82
2024-04-10T17:10:36.583Z,2.95
2024-04-10T17:13:05.803Z,3.47
2024-04-10T17:15:32.364Z,3.15
2024-04-10T17:17:59.156Z,3.38
2024-04-10T17:20:25.748Z,3.25
2024-04-10T17:22:52.280Z,3.58
2024-04-10T17:25:18.804Z,3.15
2024-04-10T17:27:46.530Z,3.67
2024-04-10T17:30:16.103Z,3.55
2024-04-10T17:32:42.875Z,3.63
2024-04-10T17:35:09.523Z,2.70
2024-04-10T17:37:36.087Z,3.45
2024-04-10T17:40:02.839Z,2.92
2024-04-10T17:42:29.404Z,3.28
2024-04-10T17:44:56.028Z,3.40
2024-04-10T17:47:25.340Z,3.22
2024-04-10T17:49:52.051Z,3.58
2024-04-10T17:52:18.592Z,3.05
2024-04-10T17:54:45.125Z,3.58
2024-04-10T17:57:11.728Z,3.63
2024-04-10T17:59:38.451Z,4.35
2024-04-10T18:02:05.024Z,4.03
2024-04-10T18:04:34.472Z,4.38
2024-04-10T18:07:01.082Z,3.80
2024-04-10T18:09:27.625Z,4.50
2024-04-10T18:11:54.394Z,5.10
2024-04-10T18:14:20.999Z,4.80
2024-04-10T18:16:47.563Z,5.43
2024-04-10T18:19:14.405Z,4.40
2024-04-10T18:21:43.713Z,4.47
2024-04-10T18:24:10.352Z,4.97
2024-04-10T18:26:37.046Z,5.57
2024-04-10T18:29:03.622Z,4.90
2024-04-10T18:31:30.173Z,4.78
2024-04-10T18:33:56.771Z,5.13
2024-04-10T18:36:23.388Z,5.60
2024-04-10T18:38:52.499Z,4.82
2024-04-10T18:41:19.298Z,5.47
2024-04-10T18:43:45.882Z,5.60
2024-04-10T18:46:12.425Z,6.43
2024-04-10T18:48:39.791Z,5.82
2024-04-10T18:51:10.871Z,6.43
2024-04-10T18:53:37.804Z,5.78
2024-04-10T18:56:07.527Z,5.18
2024-04-10T18:58:34.106Z,6.20
2024-04-10T19:01:04.712Z,6.25
2024-04-10T19:03:31.907Z,7.22
2024-04-10T19:05:58.667Z,5.88
2024-04-10T19:08:25.987Z,6.45
2024-04-10T19:10:52.969Z,7.57
2024-04-10T19:13:22.137Z,7.75
2024-04-10T19:15:48.960Z,7.65
2024-04-10T19:18:16.170Z,7.45
2024-04-10T19:20:42.902Z,7.72
2024-04-10T19:23:09.536Z,7.75
2024-04-10T19:25:36.120Z,8.15
2024-04-10T19:28:02.791Z,9.18
2024-04-10T19:30:32.010Z,9.00
2024-04-10T19:32:58.658Z,9.55
2024-04-10T19:35:25.310Z,9.35
2024-04-10T19:37:51.870Z,9.98
2024-04-10T19:40:18.475Z,8.77
2024-04-10T19:42:45.134Z,9.18
2024-04-10T19:45:14.316Z,8.85
2024-04-10T19:47:44.176Z,8.65
2024-04-10T19:50:10.787Z,8.40
2024-04-10T19:52:37.336Z,8.30
2024-04-10T19:55:04.425Z,7.72
2024-04-10T19:57:31.078Z,7.70
2024-04-10T19:59:57.805Z,8.52
2024-04-10T20:02:25.384Z,6.95
2024-04-10T20:04:55.008Z,7.53
2024-04-10T20:07:21.721Z,8.18
2024-04-10T20:09:48.318Z,7.90
2024-04-10T20:12:14.993Z,7.57
2024-04-10T20:14:41.662Z,7.20
2024-04-10T20:17:08.347Z,7.60
2024-04-10T20:19:35.031Z,7.60
2024-04-10T20:22:04.757Z,8.00
2024-04-10T20:24:31.633Z,6.97
2024-04-10T20:26:58.386Z,7.43
2024-04-10T20:29:25.204Z,7.18
2024-04-10T20:31:51.947Z,6.90
2024-04-10T20:34:18.777Z,7.20
2024-04-10T20:36:45.384Z,7.68
2024-04-10T20:39:14.962Z,7.75
2024-04-10T20:41:41.723Z,7.30
2024-04-10T20:44:08.472Z,7.45
2024-04-10T20:46:35.054Z,8.40
2024-04-10T20:49:02.006Z,7.68
2024-04-10T20:51:28.837Z,7.93
2024-04-10T20:53:55.718Z,7.80
2024-04-10T20:56:25.062Z,7.60
2024-04-10T20:58:51.778Z,7.25
2024-04-10T21:01:19.978Z,7.82
2024-04-10T21:03:48.666Z,7.35
2024-04-10T21:06:16.991Z,7.32
2024-04-10T21:08:44.615Z,7.00
2024-04-10T21:11:11.464Z,6.32
2024-04-10T21:13:40.639Z,7.07
2024-04-10T21:16:07.674Z,7.20
2024-04-10T21:18:34.322Z,6.32
2024-04-10T21:21:02.281Z,7.07
2024-04-10T21:23:28.980Z,6.85
2024-04-10T21:25:55.610Z,7.72
2024-04-10T21:28:22.175Z,7.53
2024-04-10T21:30:51.420Z,7.35
2024-04-10T21:33:18.053Z,7.90
2024-04-10T21:35:44.669Z,7.20
2024-04-10T21:38:11.380Z,8.02
2024-04-10T21:40:38.364Z,7.55
2024-04-10T21:43:04.937Z,7.90
2024-04-10T21:45:32.359Z,7.88
2024-04-10T21:48:01.822Z,7.97
2024-04-10T21:50:28.715Z,8.32
2024-04-10T21:52:55.365Z,7.63
2024-04-10T21:55:21.953Z,8.30
2024-04-10T21:57:48.548Z,7.90
2024-04-10T22:00:33.164Z,9.30
2024-04-10T22:03:04.759Z,8.57
2024-04-10T22:05:32.020Z,7.97
2024-04-10T22:07:58.806Z,8.40
2024-04-10T22:10:25.402Z,8.20
2024-04-10T22:12:52.080Z,8.27
2024-04-10T22:15:19.850Z,8.13
2024-04-10T22:17:46.762Z,8.15
2024-04-10T22:20:16.275Z,8.38
2024-04-10T22:22:42.835Z,7.57
2024-04-10T22:25:09.425Z,7.88
2024-04-10T22:27:36.103Z,9.10
2024-04-10T22:30:03.002Z,8.65
2024-04-10T22:32:29.910Z,8.10
2024-04-10T22:34:56.611Z,8.05
2024-04-10T22:37:25.761Z,6.72
2024-04-10T22:39:52.329Z,8.55
2024-04-10T22:42:18.935Z,8.27
2024-04-10T22:44:49.010Z,7.68
2024-04-10T22:47:17.356Z,7.80
2024-04-10T22:49:44.112Z,7.75
2024-04-10T22:52:10.737Z,8.45
2024-04-10T22:54:39.861Z,7.53
2024-04-10T22:57:06.557Z,8.15
2024-04-10T22:59:33.239Z,7.97
2024-04-10T23:01:59.841Z,8.15
2024-04-10T23:04:26.427Z,8.45
2024-04-10T23:09:22.658Z,8.05
2024-04-10T23:11:52.032Z,9.43
2024-04-10T23:14:18.767Z,8.65
2024-04-10T23:16:45.366Z,7.35
2024-04-10T23:19:17.065Z,7.97
2024-04-10T23:21:44.579Z,7.20
2024-04-10T23:24:11.136Z,8.32
2024-04-10T23:26:37.795Z,7.15
2024-04-10T23:29:06.984Z,8.48
2024-04-10T23:31:33.611Z,7.03
2024-04-10T23:34:00.714Z,8.13
2024-04-10T23:36:27.433Z,7.78
2024-04-10T23:38:54.008Z,7.93
2024-04-10T23:41:20.664Z,7.68
2024-04-10T23:43:47.642Z,7.60
2024-04-10T23:46:16.798Z,7.57
2024-04-10T23:48:43.604Z,7.75
2024-04-10T23:51:10.547Z,7.82
2024-04-10T23:53:37.108Z,7.80
2024-04-10T23:56:04.663Z,7.80
2024-04-10T23:58:31.222Z,7.55
